Pittsfield, IL

9:30 AM CDT on September 20, 2014 (GMT -0500)
Pittsfield Penstone Municipal | Change Station
CLOSE
Current Station
Airport
Location: Pittsfield,
Elevation: 709 ft
Nearby Weather Stations

Elev 709 ft 39.64 °N, 90.78 °W | Updated 15 minutes ago

Scattered Clouds
Scattered Clouds
71 °F
Feels Like 71 °F
N
7
Wind Variable Wind from WSW

Today
High -- | Low -- °F
--% Chance of Precip.
Yesterday
High -- | Low -- °F
Precip. -- in
6:49 AM 7:03 PM
Waning Crescent, 12% visible
Pressure 30.02 in
Visibility 10.0 miles
Clouds Scattered Clouds 2600 ft
Scattered Clouds 5000 ft
Scattered Clouds 8000 ft
Dew Point 65 °F
Humidity 81%
Rainfall 0.00 in
Snow Depth Not available.
UV 2 out of 12
Pollen 6.50 out of 12
Air Quality Not available.
Flu Activity Not available.
METAR KPPQ 201415Z AUTO 24006KT 10SM SCT026 SCT050 SCT080 22/18 A3002 RMK AO2 T02150181

More Conditions Fewer Conditions

Pressure 30.02 in
Visibility 10.0 miles
Clouds Scattered Clouds 2600 ft
Scattered Clouds 5000 ft
Scattered Clouds 8000 ft
Dew Point 65 °F
Humidity 81%
Rainfall 0.00 in
Snow Depth Not available.
UV 2 out of 12
Pollen 6.50 out of 12
Air Quality Not available.
Flu Activity Not available.
METAR KPPQ 201415Z AUTO 24006KT 10SM SCT026 SCT050 SCT080 22/18 A3002 RMK AO2 T02150181

More Conditions Fewer Conditions

10-Day Weather Forecast

Almanac

Astronomy

Sep. 20, 2014 Rise Set
Actual Time 6:49 AM CDT 7:03 PM CDT
Civil Twilight 6:22 AM CDT 7:30 PM CDT
Nautical Twilight 5:50 AM CDT 8:01 PM CDT
Astronomical Twilight 5:18 AM CDT 8:33 PM CDT
Moon 3:28 AM CDT 5:06 PM CDT
Length of Visible Light 13h 08m
Length of Day
12h 14m
Tomorrow will be 2m 34s shorter.
Waning Crescent, 12% of the Moon is Illuminated
Today
Waning Crescent
Sep 24
New
Oct 1
First Quarter
Oct 8
Full
Oct 15
Last Quarter

Today's Extremes

State Highs State Lows

Community

WunderPhotos

Upload Photos

1,754,872 photos uploaded!

Nearby

Snow Depth

Station Depth Elevation
No new snow has been reported.

Earthquake Activity

City Distance Mag. Time & Date
No recent earthquake activity has been reported nearby.
Minimum magnitude displayed is 2.5.

Coastal Water Temperatures

Place Temperature
No Stations Reporting

Nearby Weather Stations